1266-й км

Карта отелей и гостиниц, располагающихся рядом с аэропортом 1266-й км :

1266-й км Республика Коми 62° 5' 43.98" N, 49° 23' 12.5988" E
1266-й км Республика Коми 62° 5' 43.98" N, 49° 23' 12.5988" E
Код аэродрома ИКАО
HF0U
Код аэродрома RU
ХФ0У
Координаты
N62.09555° E049.38683°
Превышение над уровнем моря
99
Основная полоса
11/29
Курс магнитный
106,9/286,9
Длина основной ВПП
20
Ширина основной ВПП
20
Покрытие основной ВПП
Твёрдое (бетон)
Освещение ВПП
Нет
Тип: 
Вертодром
Класс аэродрома: 
Принадлежность: 
ГА
Статус: 
Действующий
Сайт: 
E-mail аэродрома: 
Страна: 
Россия
Регион: 
Республика Коми
Город: 
Дополнительная информация: 
Оператор: нет данных.

Найти трансфер

С помощью этой формы Вы можете найти трансфер из аэропорта 1266-й км в город, аэропорт или вокзал:

Карта места

Javascript is required to view this map.

Погода в аэропортах:

Авиационная погода в Виннице

Регион: 
Погода METAR: 
UKWW 061030Z 10004MPS 0250 -RA FG VV002 01/01 Q1008 NOSIG
Время наблюдения
2021-12-06T10:30:00Z
Температура C
1.0
Точка росы
1.0
Направление ветра
100
Скорость ветра (узлы)
8
Метео видимость
0.16
Явления погоды
-RA FG
Условия полета
LIFR
Аэропорт подробнее: 

Авиационная погода в Уфе

Регион: 
Погода METAR: 
UWUU 061030Z 30004MPS 9999 -SN OVC019 M05/M07 Q1022 R32L/1///48 TEMPO 2100 -SN BKN011
Время наблюдения
2021-12-06T10:30:00Z
Температура C
-5.0
Точка росы
-7.0
Направление ветра
300
Скорость ветра (узлы)
8
Метео видимость
6.21
Явления погоды
-SN
Условия полета
MVFR
Аэропорт подробнее: 

Авиационная погода в аэропорту Центральный

Регион: 
Погода METAR: 
UNOO 061030Z 21004MPS 6000 -SHSN BKN026CB M03/M03 Q1013 R25/590140 NOSIG RMK QFE752
Время наблюдения
2021-12-06T10:30:00Z
Температура C
-3.0
Точка росы
-3.0
Направление ветра
210
Скорость ветра (узлы)
8
Метео видимость
3.73
Явления погоды
-SHSN
Условия полета
MVFR
Аэропорт подробнее: 

Авиационная погода в Яссах

Регион: 
Погода METAR: 
LRIA 061030Z 14002KT 2000 -DZ BR OVC002 04/03 Q1007
Время наблюдения
2021-12-06T10:30:00Z
Температура C
4.0
Точка росы
3.0
Направление ветра
140
Скорость ветра (узлы)
2
Метео видимость
1.24
Явления погоды
-DZ BR
Условия полета
LIFR